sensor_id;sensor_type;location;lat;lon;timestamp;temperature;humidity
3550;DHT22;45572;48.804;8.330;2022-10-16T02:09:34;15.60;96.80
3550;DHT22;45572;48.804;8.330;2022-10-16T02:12:36;16.60;96.80
3550;DHT22;45572;48.804;8.330;2022-10-16T02:15:10;16.60;96.80
3550;DHT22;45572;48.804;8.330;2022-10-16T02:17:38;16.60;96.80
3550;DHT22;45572;48.804;8.330;2022-10-16T02:20:06;16.60;96.80
3550;DHT22;45572;48.804;8.330;2022-10-16T02:22:37;16.70;96.80
3550;DHT22;45572;48.804;8.330;2022-10-16T02:25:10;16.70;96.80
3550;DHT22;45572;48.804;8.330;2022-10-16T02:27:44;16.70;96.80
3550;DHT22;45572;48.804;8.330;2022-10-16T02:30:16;16.70;96.80
3550;DHT22;45572;48.804;8.330;2022-10-16T02:32:47;16.80;96.80
3550;DHT22;45572;48.804;8.330;2022-10-16T02:35:17;16.90;96.80
3550;DHT22;45572;48.804;8.330;2022-10-16T02:37:46;16.90;96.80
3550;DHT22;45572;48.804;8.330;2022-10-16T02:40:17;16.90;96.80
3550;DHT22;45572;48.804;8.330;2022-10-16T02:42:52;17.00;96.80
3550;DHT22;45572;48.804;8.330;2022-10-16T02:45:21;16.90;96.80
3550;DHT22;45572;48.804;8.330;2022-10-16T02:47:49;16.90;96.80
3550;DHT22;45572;48.804;8.330;2022-10-16T02:50:17;17.00;96.80
3550;DHT22;45572;48.804;8.330;2022-10-16T02:52:45;17.00;96.80
3550;DHT22;45572;48.804;8.330;2022-10-16T02:55:13;16.90;96.80
3550;DHT22;45572;48.804;8.330;2022-10-16T02:57:42;16.90;96.80
3550;DHT22;45572;48.804;8.330;2022-10-16T03:00:12;16.90;96.80
3550;DHT22;45572;48.804;8.330;2022-10-16T03:02:40;16.90;96.80
3550;DHT22;45572;48.804;8.330;2022-10-16T03:05:09;16.90;96.80
3550;DHT22;45572;48.804;8.330;2022-10-16T03:07:37;16.90;96.80
3550;DHT22;45572;48.804;8.330;2022-10-16T03:10:06;16.90;96.80
3550;DHT22;45572;48.804;8.330;2022-10-16T03:12:33;16.90;96.80
3550;DHT22;45572;48.804;8.330;2022-10-16T03:15:03;17.00;96.80
3550;DHT22;45572;48.804;8.330;2022-10-16T03:17:31;16.90;96.80
3550;DHT22;45572;48.804;8.330;2022-10-16T03:19:59;16.90;96.80
3550;DHT22;45572;48.804;8.330;2022-10-16T03:22:27;16.90;96.80
3550;DHT22;45572;48.804;8.330;2022-10-16T03:24:55;16.90;96.80
3550;DHT22;45572;48.804;8.330;2022-10-16T03:27:23;16.90;96.80
3550;DHT22;45572;48.804;8.330;2022-10-16T03:29:51;16.80;96.80
3550;DHT22;45572;48.804;8.330;2022-10-16T03:32:20;16.80;96.80
3550;DHT22;45572;48.804;8.330;2022-10-16T03:34:48;16.80;96.80
3550;DHT22;45572;48.804;8.330;2022-10-16T03:37:16;16.80;96.80
3550;DHT22;45572;48.804;8.330;2022-10-16T03:39:43;16.70;96.80
3550;DHT22;45572;48.804;8.330;2022-10-16T03:42:11;16.80;96.80
3550;DHT22;45572;48.804;8.330;2022-10-16T03:44:39;16.80;96.80
3550;DHT22;45572;48.804;8.330;2022-10-16T03:47:06;16.80;96.80
3550;DHT22;45572;48.804;8.330;2022-10-16T03:49:35;16.80;96.80
3550;DHT22;45572;48.804;8.330;2022-10-16T03:52:03;16.80;96.80
3550;DHT22;45572;48.804;8.330;2022-10-16T03:54:31;16.80;96.80
3550;DHT22;45572;48.804;8.330;2022-10-16T03:57:00;16.80;96.80
3550;DHT22;45572;48.804;8.330;2022-10-16T03:59:28;16.80;96.80
3550;DHT22;45572;48.804;8.330;2022-10-16T04:01:56;16.80;96.80
3550;DHT22;45572;48.804;8.330;2022-10-16T04:04:23;16.80;96.80
3550;DHT22;45572;48.804;8.330;2022-10-16T04:06:53;16.80;96.80
3550;DHT22;45572;48.804;8.330;2022-10-16T04:09:21;16.80;96.80
3550;DHT22;45572;48.804;8.330;2022-10-16T04:11:48;16.80;96.80
3550;DHT22;45572;48.804;8.330;2022-10-16T04:14:17;16.80;96.80
3550;DHT22;45572;48.804;8.330;2022-10-16T04:16:45;16.80;96.80
3550;DHT22;45572;48.804;8.330;2022-10-16T04:19:12;16.70;96.80
3550;DHT22;45572;48.804;8.330;2022-10-16T04:21:40;16.70;96.80
3550;DHT22;45572;48.804;8.330;2022-10-16T04:24:09;16.60;96.80
3550;DHT22;45572;48.804;8.330;2022-10-16T04:26:38;16.50;96.80
3550;DHT22;45572;48.804;8.330;2022-10-16T04:29:05;16.50;96.80
3550;DHT22;45572;48.804;8.330;2022-10-16T04:31:33;16.50;96.80
3550;DHT22;45572;48.804;8.330;2022-10-16T04:34:01;16.50;96.80
3550;DHT22;45572;48.804;8.330;2022-10-16T04:36:29;16.50;96.80
3550;DHT22;45572;48.804;8.330;2022-10-16T04:38:57;16.60;96.80
3550;DHT22;45572;48.804;8.330;2022-10-16T04:41:26;16.60;96.80
3550;DHT22;45572;48.804;8.330;2022-10-16T04:43:54;16.60;96.80
3550;DHT22;45572;48.804;8.330;2022-10-16T04:46:22;16.60;96.80
3550;DHT22;45572;48.804;8.330;2022-10-16T04:48:49;16.50;96.80
3550;DHT22;45572;48.804;8.330;2022-10-16T04:51:17;16.50;96.80
3550;DHT22;45572;48.804;8.330;2022-10-16T04:53:59;16.40;96.80
3550;DHT22;45572;48.804;8.330;2022-10-16T04:56:28;16.40;96.80
3550;DHT22;45572;48.804;8.330;2022-10-16T04:58:55;16.40;96.80
3550;DHT22;45572;48.804;8.330;2022-10-16T05:01:23;16.40;96.80
3550;DHT22;45572;48.804;8.330;2022-10-16T05:03:51;16.40;96.80
3550;DHT22;45572;48.804;8.330;2022-10-16T05:06:19;16.40;96.80
3550;DHT22;45572;48.804;8.330;2022-10-16T05:08:48;16.40;96.80
3550;DHT22;45572;48.804;8.330;2022-10-16T05:11:15;16.40;96.80
3550;DHT22;45572;48.804;8.330;2022-10-16T05:13:44;16.40;96.80
3550;DHT22;45572;48.804;8.330;2022-10-16T05:16:14;16.40;96.80
3550;DHT22;45572;48.804;8.330;2022-10-16T05:18:42;16.40;96.80
3550;DHT22;45572;48.804;8.330;2022-10-16T05:21:10;16.40;96.80
3550;DHT22;45572;48.804;8.330;2022-10-16T05:23:38;16.20;96.80
3550;DHT22;45572;48.804;8.330;2022-10-16T05:26:06;16.00;96.80
3550;DHT22;45572;48.804;8.330;2022-10-16T05:28:33;15.90;96.80
3550;DHT22;45572;48.804;8.330;2022-10-16T05:31:05;15.90;96.80
3550;DHT22;45572;48.804;8.330;2022-10-16T05:33:33;16.00;96.80
3550;DHT22;45572;48.804;8.330;2022-10-16T05:36:01;16.10;96.80
3550;DHT22;45572;48.804;8.330;2022-10-16T05:38:30;16.10;96.80
3550;DHT22;45572;48.804;8.330;2022-10-16T05:40:57;16.10;96.80
3550;DHT22;45572;48.804;8.330;2022-10-16T05:43:27;16.20;96.80
3550;DHT22;45572;48.804;8.330;2022-10-16T05:45:55;16.30;96.80
3550;DHT22;45572;48.804;8.330;2022-10-16T05:48:25;16.30;96.80
3550;DHT22;45572;48.804;8.330;2022-10-16T05:50:57;16.20;96.80
3550;DHT22;45572;48.804;8.330;2022-10-16T05:53:26;16.20;96.80
3550;DHT22;45572;48.804;8.330;2022-10-16T05:55:55;16.10;96.80
3550;DHT22;45572;48.804;8.330;2022-10-16T05:58:23;16.10;96.80
3550;DHT22;45572;48.804;8.330;2022-10-16T06:00:54;16.20;96.80
3550;DHT22;45572;48.804;8.330;2022-10-16T06:03:24;16.20;96.80
3550;DHT22;45572;48.804;8.330;2022-10-16T06:05:52;16.30;96.80
3550;DHT22;45572;48.804;8.330;2022-10-16T06:08:22;16.30;96.80
3550;DHT22;45572;48.804;8.330;2022-10-16T06:11:00;16.30;96.80
3550;DHT22;45572;48.804;8.330;2022-10-16T06:13:28;16.30;96.80
3550;DHT22;45572;48.804;8.330;2022-10-16T06:15:57;16.20;96.80
3550;DHT22;45572;48.804;8.330;2022-10-16T06:18:27;16.20;96.80
3550;DHT22;45572;48.804;8.330;2022-10-16T06:20:55;16.10;96.80
3550;DHT22;45572;48.804;8.330;2022-10-16T06:23:23;16.20;96.80
3550;DHT22;45572;48.804;8.330;2022-10-16T06:25:51;16.20;96.80
3550;DHT22;45572;48.804;8.330;2022-10-16T06:28:19;16.20;96.80
3550;DHT22;45572;48.804;8.330;2022-10-16T06:30:47;16.10;96.80
3550;DHT22;45572;48.804;8.330;2022-10-16T06:33:14;16.20;96.80
3550;DHT22;45572;48.804;8.330;2022-10-16T06:35:43;16.30;96.80
3550;DHT22;45572;48.804;8.330;2022-10-16T06:38:11;16.30;96.80
3550;DHT22;45572;48.804;8.330;2022-10-16T06:40:39;16.30;96.80
3550;DHT22;45572;48.804;8.330;2022-10-16T06:43:07;16.30;96.80
3550;DHT22;45572;48.804;8.330;2022-10-16T06:45:35;16.40;96.80
3550;DHT22;45572;48.804;8.330;2022-10-16T06:48:03;16.40;96.80
3550;DHT22;45572;48.804;8.330;2022-10-16T06:50:31;16.40;96.80
3550;DHT22;45572;48.804;8.330;2022-10-16T06:53:00;16.30;96.80
3550;DHT22;45572;48.804;8.330;2022-10-16T06:55:27;16.30;96.80
3550;DHT22;45572;48.804;8.330;2022-10-16T06:57:55;16.40;96.80
3550;DHT22;45572;48.804;8.330;2022-10-16T07:00:23;16.40;96.80
3550;DHT22;45572;48.804;8.330;2022-10-16T07:02:55;16.40;96.80
3550;DHT22;45572;48.804;8.330;2022-10-16T07:05:23;16.50;96.80
3550;DHT22;45572;48.804;8.330;2022-10-16T07:07:51;16.40;96.80
3550;DHT22;45572;48.804;8.330;2022-10-16T07:10:20;16.50;96.80
3550;DHT22;45572;48.804;8.330;2022-10-16T07:12:50;16.50;96.80
3550;DHT22;45572;48.804;8.330;2022-10-16T07:15:18;16.50;96.80
3550;DHT22;45572;48.804;8.330;2022-10-16T07:17:46;16.50;96.80
3550;DHT22;45572;48.804;8.330;2022-10-16T07:20:14;16.70;96.80
3550;DHT22;45572;48.804;8.330;2022-10-16T07:22:41;16.90;96.80
3550;DHT22;45572;48.804;8.330;2022-10-16T07:25:09;17.30;96.80
3550;DHT22;45572;48.804;8.330;2022-10-16T07:27:38;17.90;96.80
3550;DHT22;45572;48.804;8.330;2022-10-16T07:30:07;18.60;95.80
3550;DHT22;45572;48.804;8.330;2022-10-16T07:32:35;19.20;92.80
3550;DHT22;45572;48.804;8.330;2022-10-16T07:35:03;19.80;91.20
3550;DHT22;45572;48.804;8.330;2022-10-16T07:37:31;20.10;88.80
3550;DHT22;45572;48.804;8.330;2022-10-16T07:39:59;20.30;88.00
3550;DHT22;45572;48.804;8.330;2022-10-16T07:42:27;20.30;88.00
3550;DHT22;45572;48.804;8.330;2022-10-16T07:44:57;20.30;87.80
3550;DHT22;45572;48.804;8.330;2022-10-16T07:47:25;20.10;88.20
3550;DHT22;45572;48.804;8.330;2022-10-16T07:49:56;19.90;89.00
3550;DHT22;45572;48.804;8.330;2022-10-16T07:52:23;19.80;89.10
3550;DHT22;45572;48.804;8.330;2022-10-16T07:54:51;19.70;89.30
3550;DHT22;45572;48.804;8.330;2022-10-16T07:57:24;19.60;89.70
3550;DHT22;45572;48.804;8.330;2022-10-16T07:59:52;19.40;90.50
3550;DHT22;45572;48.804;8.330;2022-10-16T08:02:21;19.30;90.30
3550;DHT22;45572;48.804;8.330;2022-10-16T08:04:49;19.20;91.20
3550;DHT22;45572;48.804;8.330;2022-10-16T08:07:17;19.10;91.30
3550;DHT22;45572;48.804;8.330;2022-10-16T08:09:49;19.00;91.20
3550;DHT22;45572;48.804;8.330;2022-10-16T08:12:18;19.00;91.50
3550;DHT22;45572;48.804;8.330;2022-10-16T08:14:45;18.90;91.40
3550;DHT22;45572;48.804;8.330;2022-10-16T08:17:15;18.90;92.10
3550;DHT22;45572;48.804;8.330;2022-10-16T08:19:45;18.90;91.80
3550;DHT22;45572;48.804;8.330;2022-10-16T08:22:14;18.90;92.20
3550;DHT22;45572;48.804;8.330;2022-10-16T08:24:42;18.90;93.20
3550;DHT22;45572;48.804;8.330;2022-10-16T08:27:10;18.80;94.10
3550;DHT22;45572;48.804;8.330;2022-10-16T08:29:37;18.70;94.40
3550;DHT22;45572;48.804;8.330;2022-10-16T08:32:05;18.80;94.70
3550;DHT22;45572;48.804;8.330;2022-10-16T08:34:33;19.00;94.40
3550;DHT22;45572;48.804;8.330;2022-10-16T08:37:02;19.00;94.30
3550;DHT22;45572;48.804;8.330;2022-10-16T08:39:30;19.30;93.40
3550;DHT22;45572;48.804;8.330;2022-10-16T08:42:11;20.00;90.30
3550;DHT22;45572;48.804;8.330;2022-10-16T08:44:55;20.50;87.00
3550;DHT22;45572;48.804;8.330;2022-10-16T08:47:39;20.70;85.80
3550;DHT22;45572;48.804;8.330;2022-10-16T08:50:12;21.00;86.20
3550;DHT22;45572;48.804;8.330;2022-10-16T08:52:44;21.40;84.60
3550;DHT22;45572;48.804;8.330;2022-10-16T08:55:25;21.70;84.00
3550;DHT22;45572;48.804;8.330;2022-10-16T08:57:55;22.20;83.00
3550;DHT22;45572;48.804;8.330;2022-10-16T09:00:24;22.80;81.20
3550;DHT22;45572;48.804;8.330;2022-10-16T09:03:03;23.20;80.30
3550;DHT22;45572;48.804;8.330;2022-10-16T09:05:46;23.60;80.50
3550;DHT22;45572;48.804;8.330;2022-10-16T09:08:24;23.80;77.70
3550;DHT22;45572;48.804;8.330;2022-10-16T09:10:57;23.80;77.40
3550;DHT22;45572;48.804;8.330;2022-10-16T09:13:29;23.60;78.30
3550;DHT22;45572;48.804;8.330;2022-10-16T09:16:04;23.40;78.90
3550;DHT22;45572;48.804;8.330;2022-10-16T09:18:42;23.60;79.20
3550;DHT22;45572;48.804;8.330;2022-10-16T09:21:15;23.60;77.20
3550;DHT22;45572;48.804;8.330;2022-10-16T09:23:45;23.80;77.90
3550;DHT22;45572;48.804;8.330;2022-10-16T09:26:16;24.00;77.00
3550;DHT22;45572;48.804;8.330;2022-10-16T09:28:45;24.30;76.20
3550;DHT22;45572;48.804;8.330;2022-10-16T09:31:17;24.50;76.50
3550;DHT22;45572;48.804;8.330;2022-10-16T09:33:51;24.50;75.80
3550;DHT22;45572;48.804;8.330;2022-10-16T09:36:20;24.00;78.60
3550;DHT22;45572;48.804;8.330;2022-10-16T09:39:02;23.80;79.90
3550;DHT22;45572;48.804;8.330;2022-10-16T09:41:29;23.30;80.80
3550;DHT22;45572;48.804;8.330;2022-10-16T09:43:59;23.20;81.70
3550;DHT22;45572;48.804;8.330;2022-10-16T09:46:30;23.00;81.90
3550;DHT22;45572;48.804;8.330;2022-10-16T09:49:00;22.60;82.60
3550;DHT22;45572;48.804;8.330;2022-10-16T09:51:29;22.20;83.70
3550;DHT22;45572;48.804;8.330;2022-10-16T09:54:00;22.10;84.60
3550;DHT22;45572;48.804;8.330;2022-10-16T09:56:29;22.00;84.60
3550;DHT22;45572;48.804;8.330;2022-10-16T09:59:00;21.90;84.50
3550;DHT22;45572;48.804;8.330;2022-10-16T10:01:31;21.90;84.80
3550;DHT22;45572;48.804;8.330;2022-10-16T10:04:02;22.00;84.60
3550;DHT22;45572;48.804;8.330;2022-10-16T10:06:33;22.10;84.20
3550;DHT22;45572;48.804;8.330;2022-10-16T10:09:15;22.20;83.40
3550;DHT22;45572;48.804;8.330;2022-10-16T10:11:49;22.30;83.20
3550;DHT22;45572;48.804;8.330;2022-10-16T10:14:22;22.70;82.20
3550;DHT22;45572;48.804;8.330;2022-10-16T10:16:51;23.40;80.60
3550;DHT22;45572;48.804;8.330;2022-10-16T10:19:22;24.30;78.70
3550;DHT22;45572;48.804;8.330;2022-10-16T10:21:54;25.00;77.00
3550;DHT22;45572;48.804;8.330;2022-10-16T10:24:24;25.20;76.50
3550;DHT22;45572;48.804;8.330;2022-10-16T10:26:56;25.50;74.10
3550;DHT22;45572;48.804;8.330;2022-10-16T10:29:40;26.20;72.70
3550;DHT22;45572;48.804;8.330;2022-10-16T10:32:18;27.10;70.20
3550;DHT22;45572;48.804;8.330;2022-10-16T10:35:00;27.60;68.60
3550;DHT22;45572;48.804;8.330;2022-10-16T10:37:44;27.90;67.90
3550;DHT22;45572;48.804;8.330;2022-10-16T10:40:27;28.20;68.10
3550;DHT22;45572;48.804;8.330;2022-10-16T10:43:05;27.70;68.50
3550;DHT22;45572;48.804;8.330;2022-10-16T10:45:42;27.60;67.70
3550;DHT22;45572;48.804;8.330;2022-10-16T10:48:19;27.30;69.10
3550;DHT22;45572;48.804;8.330;2022-10-16T10:50:51;26.80;69.80
3550;DHT22;45572;48.804;8.330;2022-10-16T10:53:35;26.70;70.70
3550;DHT22;45572;48.804;8.330;2022-10-16T10:56:14;26.70;70.20
3550;DHT22;45572;48.804;8.330;2022-10-16T10:58:53;26.50;72.50
3550;DHT22;45572;48.804;8.330;2022-10-16T11:01:30;26.30;72.40
3550;DHT22;45572;48.804;8.330;2022-10-16T11:04:15;26.20;72.00
3550;DHT22;45572;48.804;8.330;2022-10-16T11:06:50;26.00;72.60
3550;DHT22;45572;48.804;8.330;2022-10-16T11:09:22;26.00;73.40
3550;DHT22;45572;48.804;8.330;2022-10-16T11:11:57;26.20;73.30
3550;DHT22;45572;48.804;8.330;2022-10-16T11:14:30;26.70;73.10
3550;DHT22;45572;48.804;8.330;2022-10-16T11:17:05;26.70;71.00
3550;DHT22;45572;48.804;8.330;2022-10-16T11:19:41;27.00;70.90
3550;DHT22;45572;48.804;8.330;2022-10-16T11:22:15;27.30;69.60
3550;DHT22;45572;48.804;8.330;2022-10-16T11:24:48;27.30;69.90
3550;DHT22;45572;48.804;8.330;2022-10-16T11:27:23;27.40;69.60
3550;DHT22;45572;48.804;8.330;2022-10-16T11:29:57;27.60;68.60
3550;DHT22;45572;48.804;8.330;2022-10-16T11:32:32;27.60;69.10
3550;DHT22;45572;48.804;8.330;2022-10-16T11:35:05;27.60;69.50
3550;DHT22;45572;48.804;8.330;2022-10-16T11:37:40;27.20;69.70
3550;DHT22;45572;48.804;8.330;2022-10-16T11:40:19;26.90;70.60
3550;DHT22;45572;48.804;8.330;2022-10-16T11:42:54;26.60;72.50
3550;DHT22;45572;48.804;8.330;2022-10-16T11:49:44;26.20;73.90
3550;DHT22;45572;48.804;8.330;2022-10-16T11:52:19;26.20;74.80
3550;DHT22;45572;48.804;8.330;2022-10-16T11:54:52;26.10;74.50
3550;DHT22;45572;48.804;8.330;2022-10-16T11:57:24;26.00;74.40
3550;DHT22;45572;48.804;8.330;2022-10-16T11:59:58;25.60;73.80
3550;DHT22;45572;48.804;8.330;2022-10-16T12:02:56;25.50;74.30
3550;DHT22;45572;48.804;8.330;2022-10-16T12:05:35;25.50;75.20
3550;DHT22;45572;48.804;8.330;2022-10-16T12:08:10;25.40;75.10
3550;DHT22;45572;48.804;8.330;2022-10-16T12:10:40;25.30;75.10
3550;DHT22;45572;48.804;8.330;2022-10-16T12:13:31;25.40;76.00
3550;DHT22;45572;48.804;8.330;2022-10-16T12:16:20;25.30;75.40
3550;DHT22;45572;48.804;8.330;2022-10-16T12:19:09;25.30;76.20
3550;DHT22;45572;48.804;8.330;2022-10-16T12:21:38;25.30;76.60
3550;DHT22;45572;48.804;8.330;2022-10-16T12:24:06;25.30;77.10
3550;DHT22;45572;48.804;8.330;2022-10-16T12:26:48;25.20;78.60
3550;DHT22;45572;48.804;8.330;2022-10-16T12:29:23;25.20;79.00
3550;DHT22;45572;48.804;8.330;2022-10-16T12:31:54;25.00;79.80
3550;DHT22;45572;48.804;8.330;2022-10-16T12:34:28;24.90;80.50
3550;DHT22;45572;48.804;8.330;2022-10-16T12:37:09;24.90;81.50
3550;DHT22;45572;48.804;8.330;2022-10-16T12:39:37;24.80;79.70
3550;DHT22;45572;48.804;8.330;2022-10-16T12:42:21;24.60;81.60
3550;DHT22;45572;48.804;8.330;2022-10-16T12:44:50;24.40;83.10
3550;DHT22;45572;48.804;8.330;2022-10-16T12:47:20;24.30;83.80
3550;DHT22;45572;48.804;8.330;2022-10-16T12:49:51;24.40;83.90
3550;DHT22;45572;48.804;8.330;2022-10-16T12:52:26;24.40;83.40
3550;DHT22;45572;48.804;8.330;2022-10-16T12:54:57;24.40;82.50
3550;DHT22;45572;48.804;8.330;2022-10-16T12:57:36;24.50;82.20
3550;DHT22;45572;48.804;8.330;2022-10-16T13:00:14;24.50;82.20
3550;DHT22;45572;48.804;8.330;2022-10-16T13:03:11;24.60;80.30
3550;DHT22;45572;48.804;8.330;2022-10-16T13:05:57;24.60;80.70
3550;DHT22;45572;48.804;8.330;2022-10-16T13:08:43;24.70;82.30
3550;DHT22;45572;48.804;8.330;2022-10-16T13:11:22;24.70;83.80
3550;DHT22;45572;48.804;8.330;2022-10-16T13:14:06;24.70;84.80
3550;DHT22;45572;48.804;8.330;2022-10-16T13:16:48;24.60;84.70
3550;DHT22;45572;48.804;8.330;2022-10-16T13:19:24;24.40;85.20
3550;DHT22;45572;48.804;8.330;2022-10-16T13:22:02;24.30;85.60
3550;DHT22;45572;48.804;8.330;2022-10-16T13:24:49;24.30;85.20
3550;DHT22;45572;48.804;8.330;2022-10-16T13:27:27;24.50;85.40
3550;DHT22;45572;48.804;8.330;2022-10-16T13:30:02;24.50;82.50
3550;DHT22;45572;48.804;8.330;2022-10-16T13:32:36;24.60;83.20
3550;DHT22;45572;48.804;8.330;2022-10-16T13:35:20;24.60;83.10
3550;DHT22;45572;48.804;8.330;2022-10-16T13:37:50;24.60;83.30
3550;DHT22;45572;48.804;8.330;2022-10-16T13:40:20;24.40;82.60
3550;DHT22;45572;48.804;8.330;2022-10-16T13:42:49;24.40;83.70
3550;DHT22;45572;48.804;8.330;2022-10-16T13:45:18;24.40;83.50
3550;DHT22;45572;48.804;8.330;2022-10-16T13:47:47;24.40;84.50
3550;DHT22;45572;48.804;8.330;2022-10-16T13:50:16;24.40;85.10
3550;DHT22;45572;48.804;8.330;2022-10-16T13:52:45;24.40;85.70
3550;DHT22;45572;48.804;8.330;2022-10-16T13:55:16;24.40;86.20
3550;DHT22;45572;48.804;8.330;2022-10-16T13:57:45;24.30;86.80
3550;DHT22;45572;48.804;8.330;2022-10-16T14:00:19;24.20;86.80
3550;DHT22;45572;48.804;8.330;2022-10-16T14:02:52;24.10;87.10
3550;DHT22;45572;48.804;8.330;2022-10-16T14:05:23;24.00;87.40
3550;DHT22;45572;48.804;8.330;2022-10-16T14:07:54;24.00;87.60
3550;DHT22;45572;48.804;8.330;2022-10-16T14:10:26;24.10;87.20
3550;DHT22;45572;48.804;8.330;2022-10-16T14:12:56;24.10;86.20
3550;DHT22;45572;48.804;8.330;2022-10-16T14:15:25;24.20;86.00
3550;DHT22;45572;48.804;8.330;2022-10-16T14:17:53;24.20;84.50
3550;DHT22;45572;48.804;8.330;2022-10-16T14:20:25;24.10;84.50
3550;DHT22;45572;48.804;8.330;2022-10-16T14:23:02;24.10;83.00
3550;DHT22;45572;48.804;8.330;2022-10-16T14:25:32;24.00;83.40
3550;DHT22;45572;48.804;8.330;2022-10-16T14:28:02;24.00;83.60
3550;DHT22;45572;48.804;8.330;2022-10-16T14:30:32;23.90;83.20
3550;DHT22;45572;48.804;8.330;2022-10-16T14:33:02;23.70;84.40
3550;DHT22;45572;48.804;8.330;2022-10-16T14:35:32;23.60;84.60
3550;DHT22;45572;48.804;8.330;2022-10-16T14:38:01;23.60;86.40
3550;DHT22;45572;48.804;8.330;2022-10-16T14:40:32;23.60;86.60
3550;DHT22;45572;48.804;8.330;2022-10-16T14:43:01;23.50;87.10
3550;DHT22;45572;48.804;8.330;2022-10-16T14:45:31;23.50;86.00
3550;DHT22;45572;48.804;8.330;2022-10-16T14:48:03;23.60;85.40
3550;DHT22;45572;48.804;8.330;2022-10-16T14:50:33;23.70;84.50
3550;DHT22;45572;48.804;8.330;2022-10-16T14:53:01;23.80;83.70
3550;DHT22;45572;48.804;8.330;2022-10-16T14:55:29;23.90;83.10
3550;DHT22;45572;48.804;8.330;2022-10-16T14:57:58;24.00;82.20
3550;DHT22;45572;48.804;8.330;2022-10-16T15:00:27;24.00;82.70
3550;DHT22;45572;48.804;8.330;2022-10-16T15:02:54;23.90;83.60
3550;DHT22;45572;48.804;8.330;2022-10-16T15:05:24;24.00;84.10
3550;DHT22;45572;48.804;8.330;2022-10-16T15:07:54;24.00;84.30
3550;DHT22;45572;48.804;8.330;2022-10-16T15:10:23;23.70;86.70
3550;DHT22;45572;48.804;8.330;2022-10-16T15:12:58;23.70;86.60
3550;DHT22;45572;48.804;8.330;2022-10-16T15:15:32;23.70;86.90
3550;DHT22;45572;48.804;8.330;2022-10-16T15:18:01;23.50;87.60
3550;DHT22;45572;48.804;8.330;2022-10-16T15:20:31;23.50;87.70
3550;DHT22;45572;48.804;8.330;2022-10-16T15:23:01;23.40;88.10
3550;DHT22;45572;48.804;8.330;2022-10-16T15:25:33;23.40;87.80
3550;DHT22;45572;48.804;8.330;2022-10-16T15:28:03;23.30;87.50
3550;DHT22;45572;48.804;8.330;2022-10-16T15:30:31;23.30;88.40
3550;DHT22;45572;48.804;8.330;2022-10-16T15:32:59;23.20;89.20
3550;DHT22;45572;48.804;8.330;2022-10-16T15:35:30;23.10;89.30
3550;DHT22;45572;48.804;8.330;2022-10-16T15:37:58;23.00;89.60
3550;DHT22;45572;48.804;8.330;2022-10-16T15:40:25;23.00;90.10
3550;DHT22;45572;48.804;8.330;2022-10-16T15:42:53;22.90;90.20
3550;DHT22;45572;48.804;8.330;2022-10-16T15:45:23;22.80;90.40
3550;DHT22;45572;48.804;8.330;2022-10-16T15:47:50;22.60;91.10
3550;DHT22;45572;48.804;8.330;2022-10-16T15:50:18;22.50;91.20
3550;DHT22;45572;48.804;8.330;2022-10-16T15:52:50;22.30;91.40
3550;DHT22;45572;48.804;8.330;2022-10-16T15:55:18;22.10;91.90
3550;DHT22;45572;48.804;8.330;2022-10-16T15:57:46;22.10;92.00
3550;DHT22;45572;48.804;8.330;2022-10-16T16:00:16;22.00;92.40
3550;DHT22;45572;48.804;8.330;2022-10-16T16:02:50;21.90;92.60
3550;DHT22;45572;48.804;8.330;2022-10-16T16:05:18;21.90;92.60
3550;DHT22;45572;48.804;8.330;2022-10-16T16:07:46;21.80;92.80
3550;DHT22;45572;48.804;8.330;2022-10-16T16:10:15;21.80;93.00
3550;DHT22;45572;48.804;8.330;2022-10-16T16:12:42;21.60;93.10
3550;DHT22;45572;48.804;8.330;2022-10-16T16:15:10;21.40;93.50
3550;DHT22;45572;48.804;8.330;2022-10-16T16:17:38;21.30;93.80
3550;DHT22;45572;48.804;8.330;2022-10-16T16:20:08;21.20;93.90
3550;DHT22;45572;48.804;8.330;2022-10-16T16:22:36;21.10;94.30
3550;DHT22;45572;48.804;8.330;2022-10-16T16:25:04;21.00;94.40
3550;DHT22;45572;48.804;8.330;2022-10-16T16:27:32;20.90;94.40
3550;DHT22;45572;48.804;8.330;2022-10-16T16:30:00;20.80;94.50
3550;DHT22;45572;48.804;8.330;2022-10-16T16:32:30;20.70;94.60
3550;DHT22;45572;48.804;8.330;2022-10-16T16:34:58;20.50;94.60
3550;DHT22;45572;48.804;8.330;2022-10-16T16:37:27;20.40;94.50
3550;DHT22;45572;48.804;8.330;2022-10-16T16:39:55;20.30;94.60
3550;DHT22;45572;48.804;8.330;2022-10-16T16:42:25;20.20;94.70
3550;DHT22;45572;48.804;8.330;2022-10-16T16:44:53;20.10;94.50
3550;DHT22;45572;48.804;8.330;2022-10-16T16:47:20;20.10;94.50
3550;DHT22;45572;48.804;8.330;2022-10-16T16:49:48;20.00;94.40
3550;DHT22;45572;48.804;8.330;2022-10-16T16:52:16;19.80;94.60
3550;DHT22;45572;48.804;8.330;2022-10-16T16:54:47;19.80;94.60
3550;DHT22;45572;48.804;8.330;2022-10-16T16:57:20;19.70;94.70
3550;DHT22;45572;48.804;8.330;2022-10-16T16:59:50;19.60;94.90
3550;DHT22;45572;48.804;8.330;2022-10-16T17:02:18;19.60;94.80
3550;DHT22;45572;48.804;8.330;2022-10-16T17:04:46;19.40;95.00
3550;DHT22;45572;48.804;8.330;2022-10-16T17:07:13;19.40;95.10
3550;DHT22;45572;48.804;8.330;2022-10-16T17:09:44;19.30;95.10
3550;DHT22;45572;48.804;8.330;2022-10-16T17:12:13;19.20;95.30
3550;DHT22;45572;48.804;8.330;2022-10-16T17:14:40;19.10;95.50
3550;DHT22;45572;48.804;8.330;2022-10-16T17:17:09;19.00;95.50
3550;DHT22;45572;48.804;8.330;2022-10-16T17:19:36;18.90;95.30
3550;DHT22;45572;48.804;8.330;2022-10-16T17:22:04;18.70;95.50
3550;DHT22;45572;48.804;8.330;2022-10-16T17:24:32;18.70;95.80
3550;DHT22;45572;48.804;8.330;2022-10-16T17:27:03;18.60;96.00
3550;DHT22;45572;48.804;8.330;2022-10-16T17:29:33;18.50;96.30
3550;DHT22;45572;48.804;8.330;2022-10-16T17:32:00;18.50;96.40
3550;DHT22;45572;48.804;8.330;2022-10-16T17:34:28;18.50;96.10
3550;DHT22;45572;48.804;8.330;2022-10-16T17:36:56;18.40;95.90
3550;DHT22;45572;48.804;8.330;2022-10-16T17:39:24;18.30;95.80
3550;DHT22;45572;48.804;8.330;2022-10-16T17:41:52;18.20;95.80
3550;DHT22;45572;48.804;8.330;2022-10-16T17:44:20;18.10;96.20
3550;DHT22;45572;48.804;8.330;2022-10-16T17:46:51;18.00;96.30
3550;DHT22;45572;48.804;8.330;2022-10-16T17:49:20;17.90;96.60
3550;DHT22;45572;48.804;8.330;2022-10-16T17:51:49;17.90;96.60
3550;DHT22;45572;48.804;8.330;2022-10-16T17:54:18;17.80;96.80
3550;DHT22;45572;48.804;8.330;2022-10-16T17:56:46;17.70;96.80
3550;DHT22;45572;48.804;8.330;2022-10-16T17:59:14;17.70;96.80
3550;DHT22;45572;48.804;8.330;2022-10-16T18:01:42;17.70;96.80
3550;DHT22;45572;48.804;8.330;2022-10-16T18:04:14;17.60;96.80
3550;DHT22;45572;48.804;8.330;2022-10-16T18:06:43;17.50;96.80
3550;DHT22;45572;48.804;8.330;2022-10-16T18:09:13;17.40;96.80
3550;DHT22;45572;48.804;8.330;2022-10-16T18:11:43;17.40;96.80
3550;DHT22;45572;48.804;8.330;2022-10-16T18:14:12;17.40;96.80
3550;DHT22;45572;48.804;8.330;2022-10-16T18:16:41;17.40;96.80
3550;DHT22;45572;48.804;8.330;2022-10-16T18:19:09;17.30;96.80
3550;DHT22;45572;48.804;8.330;2022-10-16T18:21:38;17.40;96.70